createdAt,value
2018-02-09T10:51:22.085Z,0.70
2018-02-09T10:53:51.294Z,0.70
2018-02-09T10:56:18.851Z,0.70
2018-02-09T10:58:46.507Z,0.90
2018-02-09T11:01:21.112Z,1.00
2018-02-09T11:03:48.656Z,1.00
2018-02-09T11:06:16.181Z,1.00
2018-02-09T11:08:43.731Z,0.90
2018-02-09T11:11:16.814Z,1.00
2018-02-09T11:13:44.351Z,0.90
2018-02-09T11:16:13.182Z,0.90
2018-02-09T11:18:40.747Z,0.90
2018-02-09T11:21:08.268Z,0.90
2018-02-09T11:23:37.185Z,1.10
2018-02-09T11:26:04.723Z,1.10
2018-02-09T11:28:32.270Z,1.10
2018-02-09T11:31:00.560Z,0.90
2018-02-09T11:33:28.114Z,0.90
2018-02-09T11:35:55.640Z,0.90
2018-02-09T11:38:23.199Z,0.90
2018-02-09T11:40:51.507Z,1.20
2018-02-09T11:43:19.075Z,1.20
2018-02-09T11:45:46.681Z,1.30
2018-02-09T11:48:14.820Z,1.30
2018-02-09T11:50:42.371Z,1.40
2018-02-09T11:53:09.901Z,1.40
2018-02-09T11:55:37.478Z,1.50
2018-02-09T11:58:05.055Z,1.60
2018-02-09T12:00:32.634Z,1.40
2018-02-09T12:03:00.160Z,1.50
2018-02-09T12:05:27.702Z,1.50
2018-02-09T12:07:55.237Z,1.60
2018-02-09T12:10:23.563Z,1.50
2018-02-09T12:12:51.884Z,1.40
2018-02-09T12:15:20.733Z,1.40
2018-02-09T12:17:48.283Z,1.40
2018-02-09T12:20:16.619Z,1.40
2018-02-09T12:22:45.027Z,1.30
2018-02-09T12:25:12.557Z,1.30
2018-02-09T12:27:40.209Z,1.40
2018-02-09T12:30:08.519Z,1.50
2018-02-09T12:32:36.088Z,1.50
2018-02-09T12:35:03.642Z,1.60
2018-02-09T12:37:31.204Z,1.70
2018-02-09T12:39:58.772Z,1.70
2018-02-09T12:42:26.273Z,1.60
2018-02-09T12:44:54.648Z,1.70
2018-02-09T12:47:22.987Z,1.70
2018-02-09T12:49:50.563Z,1.70
2018-02-09T12:52:18.150Z,1.60
2018-02-09T12:54:46.415Z,1.50
2018-02-09T12:57:14.057Z,1.50
2018-02-09T12:59:42.987Z,1.50
2018-02-09T13:02:10.591Z,1.60
2018-02-09T13:04:38.148Z,1.50
2018-02-09T13:07:06.262Z,1.50
2018-02-09T13:09:33.893Z,1.70
2018-02-09T13:12:01.439Z,1.70
2018-02-09T13:14:44.351Z,1.60
2018-02-09T13:17:11.909Z,1.50
2018-02-09T13:19:39.455Z,1.60
2018-02-09T13:22:07.841Z,1.80
2018-02-09T13:24:35.444Z,2.00
2018-02-09T13:27:03.001Z,2.00
2018-02-09T13:29:31.320Z,2.00
2018-02-09T13:32:07.461Z,2.00
2018-02-09T13:34:43.649Z,1.90
2018-02-09T13:40:12.972Z,2.00
2018-02-09T13:42:41.466Z,2.00
2018-02-09T13:45:09.138Z,2.00
2018-02-09T13:47:41.284Z,2.00
2018-02-09T13:50:12.582Z,2.00
2018-02-09T13:52:45.641Z,2.00
2018-02-09T13:55:14.550Z,1.80
2018-02-09T13:57:44.061Z,1.90
2018-02-09T14:00:11.679Z,1.90
2018-02-09T14:02:39.263Z,1.90
2018-02-09T14:05:26.557Z,1.80
2018-02-09T14:08:00.945Z,1.80
2018-02-09T14:10:34.578Z,1.80
2018-02-09T14:13:03.402Z,1.80
2018-02-09T14:15:32.198Z,1.70
2018-02-09T14:18:04.891Z,1.80
2018-02-09T14:20:32.474Z,1.80
2018-02-09T14:23:27.817Z,1.80
2018-02-09T14:25:59.720Z,1.70
2018-02-09T14:28:27.305Z,1.70
2018-02-09T14:31:00.632Z,1.70
2018-02-09T14:33:28.522Z,1.70
2018-02-09T14:36:02.039Z,1.70
2018-02-09T14:38:30.562Z,1.70
2018-02-09T14:40:58.984Z,1.80
2018-02-09T14:43:27.091Z,2.00
2018-02-09T14:45:59.523Z,2.00
2018-02-09T14:48:39.289Z,1.90
2018-02-09T14:51:06.946Z,1.90
2018-02-09T14:53:34.871Z,1.90
2018-02-09T14:56:03.703Z,2.00
2018-02-09T14:58:34.072Z,2.00
2018-02-09T15:01:01.630Z,1.90
2018-02-09T15:03:29.224Z,1.80
2018-02-09T15:05:57.354Z,1.80
2018-02-09T15:08:26.800Z,1.80
2018-02-09T15:10:55.816Z,1.80
2018-02-09T15:13:30.360Z,1.90
2018-02-09T15:15:57.958Z,1.80
2018-02-09T15:18:26.740Z,1.80
2018-02-09T15:21:02.646Z,1.70
2018-02-09T15:23:31.030Z,1.60
2018-02-09T15:26:04.480Z,1.60
2018-02-09T15:28:32.057Z,1.60
2018-02-09T15:31:08.386Z,1.60
2018-02-09T15:33:44.126Z,1.60
2018-02-09T15:36:18.776Z,1.60
2018-02-09T15:39:03.247Z,1.60
2018-02-09T15:41:30.866Z,1.70
2018-02-09T15:44:06.554Z,1.70
2018-02-09T15:46:34.219Z,1.70
2018-02-09T15:49:02.896Z,1.60
2018-02-09T15:51:31.328Z,1.60
2018-02-09T15:53:59.743Z,1.70
2018-02-09T15:56:35.576Z,1.60
2018-02-09T15:59:03.218Z,1.50
2018-02-09T16:01:31.114Z,1.60
2018-02-09T16:03:58.729Z,1.50
2018-02-09T16:06:27.571Z,1.50
2018-02-09T16:08:56.817Z,1.40
2018-02-09T16:11:25.130Z,1.40
2018-02-09T16:14:13.147Z,1.40
2018-02-09T16:16:40.703Z,1.40
2018-02-09T16:19:10.029Z,1.50
2018-02-09T16:21:44.480Z,1.50
2018-02-09T16:24:12.427Z,1.40
2018-02-09T16:26:44.660Z,1.40
2018-02-09T16:29:13.644Z,1.50
2018-02-09T16:31:46.836Z,1.40
2018-02-09T16:34:39.925Z,1.40
2018-02-09T16:37:14.842Z,1.40
2018-02-09T16:39:48.341Z,1.40
2018-02-09T16:42:17.008Z,1.50
2018-02-09T16:44:52.090Z,1.40
2018-02-09T16:47:20.475Z,1.40
2018-02-09T16:52:54.304Z,1.40
2018-02-09T16:55:26.059Z,1.30
2018-02-09T16:57:53.645Z,1.30
2018-02-09T17:00:21.228Z,1.20
2018-02-09T17:02:50.520Z,1.30
2018-02-09T17:05:20.575Z,1.20
2018-02-09T17:07:54.127Z,1.20
2018-02-09T17:10:29.054Z,1.20
2018-02-09T17:12:57.980Z,1.20
2018-02-09T17:15:25.584Z,1.20
2018-02-09T17:17:53.170Z,1.20
2018-02-09T17:20:23.761Z,1.20
2018-02-09T17:22:55.540Z,1.20
2018-02-09T17:25:24.078Z,1.20
2018-02-09T17:27:58.198Z,1.20
2018-02-09T17:30:27.608Z,1.20
2018-02-09T17:32:57.169Z,1.30
2018-02-09T17:35:27.859Z,1.20
2018-02-09T17:38:02.399Z,1.20
2018-02-09T17:40:32.197Z,1.20
2018-02-09T17:43:22.713Z,1.30
2018-02-09T17:45:52.202Z,1.30
2018-02-09T17:48:21.461Z,1.10
2018-02-09T17:50:50.246Z,1.10
2018-02-09T17:53:23.121Z,1.10
2018-02-09T17:55:54.594Z,1.10
2018-02-09T17:58:22.167Z,1.10
2018-02-09T18:00:52.441Z,1.00
2018-02-09T18:03:23.923Z,1.00
2018-02-09T18:05:56.369Z,1.10
2018-02-09T18:08:23.961Z,1.00
2018-02-09T18:10:55.635Z,1.10
2018-02-09T18:13:28.652Z,1.00
2018-02-09T18:15:58.720Z,1.10
2018-02-09T18:18:28.353Z,1.00
2018-02-09T18:20:55.932Z,0.90
2018-02-09T18:23:26.675Z,0.90
2018-02-09T18:26:02.973Z,0.90
2018-02-09T18:28:30.678Z,0.90
2018-02-09T18:31:01.648Z,0.70
2018-02-09T18:33:29.948Z,0.70
2018-02-09T18:36:04.975Z,0.80
2018-02-09T18:38:33.075Z,0.80
2018-02-09T18:41:02.345Z,0.70
2018-02-09T18:43:29.972Z,0.80
2018-02-09T18:48:34.112Z,0.70
2018-02-09T18:51:01.752Z,0.60
2018-02-09T18:53:30.748Z,0.70
2018-02-09T18:56:02.800Z,0.70
2018-02-09T18:58:35.298Z,0.80
2018-02-09T19:01:03.834Z,0.90
2018-02-09T19:03:32.067Z,0.90
2018-02-09T19:06:02.033Z,1.00
2018-02-09T19:08:29.615Z,1.00
2018-02-09T19:10:57.970Z,1.00
2018-02-09T19:13:26.949Z,1.00
2018-02-09T19:15:57.098Z,1.00
2018-02-09T19:21:01.492Z,1.00
2018-02-09T19:23:29.969Z,1.00
2018-02-09T19:25:57.796Z,0.90
2018-02-09T19:28:25.591Z,1.00
2018-02-09T19:30:53.146Z,1.00
2018-02-09T19:33:21.100Z,1.00
2018-02-09T19:35:49.039Z,1.10
2018-02-09T19:38:16.686Z,1.00
2018-02-09T19:40:45.140Z,1.00
2018-02-09T19:43:13.692Z,1.00
2018-02-09T19:45:42.172Z,1.00
2018-02-09T19:48:10.109Z,1.00
2018-02-09T19:50:37.711Z,1.00
2018-02-09T19:53:05.766Z,0.90
2018-02-09T19:55:33.679Z,0.90
2018-02-09T19:58:02.034Z,1.00
2018-02-09T20:00:31.008Z,0.90
2018-02-09T20:02:59.015Z,1.00
2018-02-09T20:05:26.582Z,0.90
2018-02-09T20:07:55.614Z,0.90
2018-02-09T20:10:24.218Z,0.90
2018-02-09T20:12:52.520Z,1.00
2018-02-09T20:15:22.928Z,1.00
2018-02-09T20:17:50.558Z,1.00
2018-02-09T20:20:18.175Z,1.10
2018-02-09T20:22:46.783Z,1.00
2018-02-09T20:25:15.557Z,1.00
2018-02-09T20:27:45.142Z,1.00
2018-02-09T20:30:14.171Z,0.90
2018-02-09T20:32:41.990Z,0.90
2018-02-09T20:35:09.704Z,0.80
2018-02-09T20:37:37.298Z,0.90
2018-02-09T20:40:05.843Z,1.00
2018-02-09T20:42:34.412Z,1.00
2018-02-09T20:45:02.075Z,1.00
2018-02-09T20:47:29.782Z,1.00
2018-02-09T20:49:57.425Z,0.90
2018-02-09T20:52:25.253Z,1.00
2018-02-09T20:54:53.097Z,1.00
2018-02-09T20:57:22.484Z,1.00
2018-02-09T20:59:50.108Z,1.00
2018-02-09T21:02:17.900Z,1.00
2018-02-09T21:04:46.120Z,1.10
2018-02-09T21:07:13.682Z,1.10
2018-02-09T21:09:41.217Z,1.00
2018-02-09T21:12:10.055Z,1.10
2018-02-09T21:14:37.735Z,1.10
2018-02-09T21:17:05.308Z,1.10
2018-02-09T21:19:33.742Z,1.00
2018-02-09T21:22:01.908Z,1.00
2018-02-09T21:24:29.491Z,1.00
2018-02-09T21:26:57.271Z,0.90
2018-02-09T21:29:25.790Z,1.00
2018-02-09T21:31:54.247Z,0.90
2018-02-09T21:34:21.836Z,0.90
2018-02-09T21:36:49.410Z,0.90
2018-02-09T21:39:16.983Z,0.90
2018-02-09T21:44:18.553Z,0.90
2018-02-09T21:46:47.135Z,1.00
2018-02-09T21:49:15.022Z,1.00
2018-02-09T21:51:42.649Z,1.00
2018-02-09T21:54:12.357Z,1.10
2018-02-09T21:56:40.865Z,1.10
2018-02-09T21:59:09.363Z,1.00
2018-02-09T22:01:37.003Z,1.00
2018-02-09T22:04:05.018Z,1.00
2018-02-09T22:06:33.402Z,1.00
2018-02-09T22:09:00.967Z,1.00
2018-02-09T22:11:28.788Z,0.90
2018-02-09T22:13:56.348Z,0.90
2018-02-09T22:16:23.962Z,0.90
2018-02-09T22:18:51.604Z,0.90
2018-02-09T22:21:21.868Z,0.90
2018-02-09T22:23:51.224Z,0.90
2018-02-09T22:26:19.198Z,1.00
2018-02-09T22:28:46.789Z,1.10
2018-02-09T22:31:14.910Z,1.10
2018-02-09T22:33:44.456Z,1.10
2018-02-09T22:36:13.669Z,1.10
2018-02-09T22:38:41.308Z,1.00
2018-02-09T22:41:17.643Z,0.90
2018-02-09T22:43:45.900Z,1.00
2018-02-09T22:46:36.630Z,1.00
2018-02-09T22:49:04.245Z,0.90
2018-02-09T22:51:34.287Z,0.90
2018-02-09T22:54:09.722Z,1.00
2018-02-09T22:56:38.322Z,1.10
2018-02-09T22:59:06.859Z,1.10
2018-02-09T23:01:34.475Z,1.20
2018-02-09T23:04:02.175Z,1.20
2018-02-09T23:06:30.596Z,1.20
2018-02-09T23:08:58.217Z,1.20
2018-02-09T23:11:25.779Z,1.10
2018-02-09T23:14:00.270Z,1.20
2018-02-09T23:16:37.972Z,1.20
2018-02-09T23:19:05.603Z,1.20
2018-02-09T23:21:33.551Z,1.20
2018-02-09T23:24:01.120Z,1.20
2018-02-09T23:26:31.998Z,1.30
2018-02-09T23:29:00.404Z,1.40
2018-02-09T23:31:28.809Z,1.30
2018-02-09T23:33:56.455Z,1.30
2018-02-09T23:36:24.068Z,1.30
2018-02-09T23:38:52.668Z,1.30
2018-02-09T23:41:23.788Z,1.40
2018-02-09T23:43:56.049Z,1.40
2018-02-09T23:46:30.365Z,1.40
2018-02-09T23:49:03.839Z,1.30
2018-02-09T23:51:50.582Z,1.30
2018-02-09T23:54:21.638Z,1.30
2018-02-09T23:56:55.555Z,1.30
2018-02-09T23:59:23.553Z,1.40
